createdAt,value
2022-07-31T00:00:19.354Z,2.22
2022-07-31T00:02:46.956Z,2.30
2022-07-31T00:05:14.466Z,2.00
2022-07-31T00:07:41.712Z,2.25
2022-07-31T00:10:09.616Z,2.35
2022-07-31T00:12:36.835Z,2.22
2022-07-31T00:15:06.458Z,2.05
2022-07-31T00:17:34.111Z,2.38
2022-07-31T00:20:01.970Z,2.40
2022-07-31T00:22:29.219Z,2.35
2022-07-31T00:24:56.942Z,2.40
2022-07-31T00:27:24.478Z,2.90
2022-07-31T00:29:51.800Z,2.67
2022-07-31T00:32:18.983Z,2.58
2022-07-31T00:34:46.161Z,2.25
2022-07-31T00:37:13.373Z,3.28
2022-07-31T00:39:40.490Z,2.70
2022-07-31T00:42:20.925Z,2.78
2022-07-31T00:44:48.576Z,3.05
2022-07-31T00:47:16.642Z,2.70
2022-07-31T00:49:45.578Z,2.92
2022-07-31T00:52:13.018Z,3.17
2022-07-31T00:54:40.434Z,2.78
2022-07-31T00:57:07.815Z,3.67
2022-07-31T00:59:35.112Z,3.00
2022-07-31T01:02:02.347Z,3.70
2022-07-31T01:04:31.143Z,3.42
2022-07-31T01:07:01.162Z,3.53
2022-07-31T01:09:29.336Z,3.40
2022-07-31T01:12:05.269Z,3.85
2022-07-31T01:14:40.321Z,3.50
2022-07-31T01:17:10.752Z,3.70
2022-07-31T01:19:44.561Z,3.65
2022-07-31T01:22:40.670Z,3.50
2022-07-31T01:25:30.296Z,3.50
2022-07-31T01:28:10.550Z,3.58
2022-07-31T01:31:10.655Z,3.78
2022-07-31T01:34:05.579Z,4.20
2022-07-31T01:36:36.766Z,3.83
2022-07-31T01:39:05.266Z,3.85
2022-07-31T01:41:40.653Z,3.58
2022-07-31T01:44:14.117Z,4.30
2022-07-31T01:46:44.928Z,3.63
2022-07-31T01:49:14.792Z,4.10
2022-07-31T01:51:45.057Z,3.53
2022-07-31T01:54:14.231Z,4.10
2022-07-31T01:56:42.153Z,3.85
2022-07-31T01:59:20.077Z,4.13
2022-07-31T02:02:12.650Z,3.90
2022-07-31T02:04:40.942Z,4.07
2022-07-31T02:07:08.873Z,4.25
2022-07-31T02:09:38.048Z,4.07
2022-07-31T02:12:33.333Z,4.30
2022-07-31T02:15:09.512Z,4.50
2022-07-31T02:17:39.714Z,4.30
2022-07-31T02:20:26.419Z,3.92
2022-07-31T02:22:55.795Z,4.03
2022-07-31T02:25:23.240Z,4.13
2022-07-31T02:27:53.741Z,4.18
2022-07-31T02:30:39.055Z,4.20
2022-07-31T02:33:14.218Z,4.50
2022-07-31T02:35:45.580Z,4.65
2022-07-31T02:38:23.491Z,4.18
2022-07-31T02:40:57.880Z,4.30
2022-07-31T02:43:26.913Z,4.07
2022-07-31T02:45:57.426Z,4.13
2022-07-31T02:48:27.051Z,4.18
2022-07-31T02:50:58.230Z,4.53
2022-07-31T02:53:27.111Z,4.50
2022-07-31T02:55:59.697Z,4.57
2022-07-31T02:58:27.305Z,4.30
2022-07-31T03:01:02.836Z,5.18
2022-07-31T03:03:32.335Z,4.30
2022-07-31T03:05:59.667Z,4.85
2022-07-31T03:08:30.107Z,5.13
2022-07-31T03:11:03.580Z,5.20
2022-07-31T03:13:33.636Z,4.32
2022-07-31T03:16:02.287Z,4.85
2022-07-31T03:18:31.163Z,4.55
2022-07-31T03:20:58.694Z,4.60
2022-07-31T03:23:27.759Z,4.93
2022-07-31T03:26:03.263Z,4.57
2022-07-31T03:28:31.234Z,5.30
2022-07-31T03:30:58.952Z,4.97
2022-07-31T03:33:29.904Z,4.72
2022-07-31T03:35:58.072Z,5.50
2022-07-31T03:38:40.839Z,5.65
2022-07-31T03:41:14.514Z,5.57
2022-07-31T03:43:44.055Z,5.38
2022-07-31T03:46:19.498Z,5.70
2022-07-31T03:48:47.409Z,6.13
2022-07-31T03:51:15.434Z,5.53
2022-07-31T03:53:43.614Z,5.20
2022-07-31T03:56:20.177Z,5.90
2022-07-31T03:58:52.444Z,6.05
2022-07-31T04:01:20.806Z,5.82
2022-07-31T04:03:57.894Z,6.22
2022-07-31T04:06:39.364Z,6.10
2022-07-31T04:09:18.831Z,5.63
2022-07-31T04:11:49.662Z,6.20
2022-07-31T04:14:17.849Z,6.60
2022-07-31T04:16:46.257Z,7.47
2022-07-31T04:19:14.315Z,6.75
2022-07-31T04:21:42.058Z,7.28
2022-07-31T04:24:11.615Z,6.75
2022-07-31T04:26:51.086Z,6.20
2022-07-31T04:29:19.485Z,7.82
2022-07-31T04:31:47.021Z,6.63
2022-07-31T04:34:23.066Z,6.80
2022-07-31T04:36:50.613Z,7.72
2022-07-31T04:39:18.405Z,7.10
2022-07-31T04:41:46.136Z,7.22
2022-07-31T04:44:13.638Z,7.28
2022-07-31T04:46:59.551Z,7.10
2022-07-31T04:49:27.854Z,8.77
2022-07-31T04:51:55.568Z,8.85
2022-07-31T04:54:24.208Z,7.30
2022-07-31T04:56:52.017Z,7.38
2022-07-31T04:59:20.614Z,7.35
2022-07-31T05:01:48.817Z,6.95
2022-07-31T05:04:19.786Z,7.38
2022-07-31T05:06:48.920Z,7.47
2022-07-31T05:09:19.364Z,6.85
2022-07-31T05:11:48.429Z,7.00
2022-07-31T05:14:17.831Z,7.47
2022-07-31T05:16:45.801Z,7.43
2022-07-31T05:19:16.364Z,7.20
2022-07-31T05:22:13.271Z,6.90
2022-07-31T05:25:00.977Z,6.90
2022-07-31T05:27:29.399Z,6.50
2022-07-31T05:29:59.908Z,7.00
2022-07-31T05:32:27.474Z,7.32
2022-07-31T05:34:55.735Z,7.47
2022-07-31T05:37:25.282Z,7.13
2022-07-31T05:39:53.784Z,7.25
2022-07-31T05:42:39.608Z,7.20
2022-07-31T05:45:25.074Z,7.82
2022-07-31T05:47:53.307Z,7.40
2022-07-31T05:50:21.670Z,6.65
2022-07-31T05:52:51.976Z,6.63
2022-07-31T05:55:42.746Z,7.65
2022-07-31T05:58:20.759Z,7.63
2022-07-31T06:00:50.583Z,6.82
2022-07-31T06:03:23.195Z,7.32
2022-07-31T06:05:57.938Z,7.80
2022-07-31T06:08:26.371Z,7.45
2022-07-31T06:10:54.295Z,6.75
2022-07-31T06:13:25.054Z,7.00
2022-07-31T06:15:53.499Z,6.72
2022-07-31T06:18:22.031Z,7.45
2022-07-31T06:20:50.426Z,7.50
2022-07-31T06:23:27.805Z,7.47
2022-07-31T06:26:05.212Z,7.40
2022-07-31T06:28:47.488Z,7.97
2022-07-31T06:31:18.345Z,7.03
2022-07-31T06:33:48.250Z,7.38
2022-07-31T06:36:18.039Z,7.07
2022-07-31T06:38:58.753Z,8.13
2022-07-31T06:41:47.461Z,7.68
2022-07-31T06:44:30.995Z,7.38
2022-07-31T06:47:07.447Z,7.05
2022-07-31T06:50:02.215Z,7.93
2022-07-31T06:52:35.363Z,7.47
2022-07-31T06:55:03.905Z,8.32
2022-07-31T06:57:31.490Z,8.25
2022-07-31T06:59:59.141Z,7.70
2022-07-31T07:02:26.856Z,8.13
2022-07-31T07:04:57.323Z,9.75
2022-07-31T07:07:36.984Z,8.05
2022-07-31T07:10:07.517Z,7.63
2022-07-31T07:12:54.047Z,7.20
2022-07-31T07:15:22.076Z,7.63
2022-07-31T07:17:49.729Z,8.02
2022-07-31T07:20:22.561Z,7.05
2022-07-31T07:22:50.155Z,7.25
2022-07-31T07:25:33.785Z,7.88
2022-07-31T07:28:02.016Z,6.57
2022-07-31T07:30:30.224Z,7.07
2022-07-31T07:33:00.954Z,6.80
2022-07-31T07:35:33.632Z,6.75
2022-07-31T07:38:05.273Z,6.88
2022-07-31T07:40:33.427Z,6.82
2022-07-31T07:43:03.960Z,7.55
2022-07-31T07:45:32.556Z,6.97
2022-07-31T07:48:06.730Z,6.72
2022-07-31T07:50:54.089Z,6.68
2022-07-31T07:53:44.785Z,6.03
2022-07-31T07:56:35.526Z,6.43
2022-07-31T07:59:29.351Z,6.30
2022-07-31T08:02:20.227Z,5.47
2022-07-31T08:04:48.639Z,5.15
2022-07-31T08:07:16.257Z,5.35
2022-07-31T08:09:44.014Z,5.75
2022-07-31T08:12:33.782Z,5.30
2022-07-31T08:15:07.601Z,5.50
2022-07-31T08:17:53.892Z,5.20
2022-07-31T08:20:23.279Z,5.82
2022-07-31T08:22:53.370Z,5.93
2022-07-31T08:25:21.014Z,5.80
2022-07-31T08:27:50.094Z,6.30
2022-07-31T08:30:17.832Z,5.90
2022-07-31T08:32:45.458Z,6.45
2022-07-31T08:35:28.657Z,6.10
2022-07-31T08:38:03.084Z,6.20
2022-07-31T08:40:43.010Z,5.65
2022-07-31T08:43:31.040Z,5.88
2022-07-31T08:46:03.607Z,6.10
2022-07-31T08:48:36.759Z,5.75
2022-07-31T08:51:05.006Z,6.35
2022-07-31T08:53:51.823Z,6.35
2022-07-31T08:56:21.213Z,6.00
2022-07-31T08:58:48.722Z,5.80
2022-07-31T09:01:16.480Z,6.40
2022-07-31T09:03:44.625Z,5.63
2022-07-31T09:06:14.173Z,6.10
2022-07-31T09:08:42.775Z,5.45
2022-07-31T09:11:11.535Z,5.93
2022-07-31T09:14:02.435Z,5.70
2022-07-31T09:16:52.529Z,5.32
2022-07-31T09:19:51.981Z,5.22
2022-07-31T09:22:23.775Z,4.80
2022-07-31T09:24:51.993Z,4.43
2022-07-31T09:27:19.970Z,5.28
2022-07-31T09:29:49.619Z,5.25
2022-07-31T09:32:36.251Z,5.47
2022-07-31T09:35:13.736Z,6.68
2022-07-31T09:37:42.200Z,8.65
2022-07-31T09:40:41.180Z,8.73
2022-07-31T09:43:57.478Z,8.27
2022-07-31T09:46:25.285Z,9.00
2022-07-31T09:48:56.676Z,10.05
2022-07-31T09:51:38.326Z,8.10
2022-07-31T09:54:06.219Z,9.25
2022-07-31T09:56:57.046Z,7.75
2022-07-31T09:59:26.725Z,6.53
2022-07-31T10:01:55.289Z,6.97
2022-07-31T10:04:23.839Z,7.25
2022-07-31T10:06:52.959Z,6.18
2022-07-31T10:09:21.667Z,5.13
2022-07-31T10:12:18.012Z,5.00
2022-07-31T10:14:45.969Z,4.70
2022-07-31T10:17:15.615Z,5.47
2022-07-31T10:20:04.051Z,4.35
2022-07-31T10:23:02.441Z,4.53
2022-07-31T10:25:35.588Z,4.93
2022-07-31T10:28:04.024Z,5.82
2022-07-31T10:30:31.694Z,4.85
2022-07-31T10:33:00.620Z,5.05
2022-07-31T10:35:28.663Z,5.88
2022-07-31T10:37:56.196Z,6.28
2022-07-31T10:40:54.910Z,6.95
2022-07-31T10:43:29.829Z,7.78
2022-07-31T10:46:27.700Z,8.75
2022-07-31T10:49:14.125Z,9.02
2022-07-31T10:52:08.204Z,8.98
2022-07-31T10:54:47.280Z,10.23
2022-07-31T10:57:56.224Z,10.18
2022-07-31T11:00:39.708Z,8.70
2022-07-31T11:03:25.960Z,6.60
2022-07-31T11:06:21.670Z,7.80
2022-07-31T11:09:23.423Z,7.45
2022-07-31T11:12:04.523Z,8.73
2022-07-31T11:14:43.377Z,10.55
2022-07-31T11:18:21.243Z,10.27
2022-07-31T11:20:27.402Z,10.15
2022-07-31T11:22:56.344Z,9.95
2022-07-31T11:25:24.221Z,9.65
2022-07-31T11:27:52.407Z,9.45
2022-07-31T11:30:19.980Z,9.80
2022-07-31T11:32:51.556Z,8.98
2022-07-31T11:35:31.572Z,9.25
2022-07-31T11:37:59.880Z,9.40
2022-07-31T11:40:28.381Z,8.95
2022-07-31T11:43:24.842Z,7.43
2022-07-31T11:45:52.681Z,7.07
2022-07-31T11:48:21.691Z,7.43
2022-07-31T11:50:50.406Z,8.82
2022-07-31T11:53:18.694Z,8.13
2022-07-31T11:55:46.324Z,8.52
2022-07-31T11:58:15.257Z,9.75
2022-07-31T12:00:49.073Z,9.55
2022-07-31T12:03:17.771Z,8.80
2022-07-31T12:05:46.228Z,9.35
2022-07-31T12:08:14.741Z,9.68
2022-07-31T12:10:42.610Z,9.00
2022-07-31T12:13:16.156Z,9.55
2022-07-31T12:16:04.951Z,8.05
2022-07-31T12:18:53.953Z,6.20
2022-07-31T12:21:21.837Z,5.57
2022-07-31T12:23:51.476Z,7.07
2022-07-31T12:26:23.870Z,7.60
2022-07-31T12:29:17.693Z,7.50
2022-07-31T12:31:49.192Z,7.07
2022-07-31T12:34:27.179Z,5.95
2022-07-31T12:37:13.783Z,6.32
2022-07-31T12:39:54.381Z,7.28
2022-07-31T12:42:30.433Z,7.22
2022-07-31T12:45:19.622Z,7.03
2022-07-31T12:47:51.785Z,7.65
2022-07-31T12:50:23.602Z,6.55
2022-07-31T12:52:51.548Z,5.65
2022-07-31T12:55:19.707Z,5.18
2022-07-31T12:57:51.484Z,3.95
2022-07-31T13:00:24.099Z,4.20
2022-07-31T13:02:52.296Z,3.85
2022-07-31T13:05:20.168Z,5.38
2022-07-31T13:07:48.486Z,4.15
2022-07-31T13:10:24.025Z,4.70
2022-07-31T13:12:52.875Z,4.63
2022-07-31T13:15:23.429Z,4.32
2022-07-31T13:17:51.330Z,4.85
2022-07-31T13:20:19.310Z,4.47
2022-07-31T13:22:46.954Z,4.32
2022-07-31T13:25:14.719Z,4.55
2022-07-31T13:27:42.347Z,5.00
2022-07-31T13:30:10.769Z,5.15
2022-07-31T13:32:38.510Z,4.15
2022-07-31T13:35:26.305Z,4.65
2022-07-31T13:37:54.308Z,4.47
2022-07-31T13:40:41.683Z,4.40
2022-07-31T13:43:09.165Z,4.43
2022-07-31T13:45:37.071Z,4.70
2022-07-31T13:48:08.877Z,4.85
2022-07-31T13:50:37.626Z,4.50
2022-07-31T13:53:05.474Z,4.55
2022-07-31T13:55:33.277Z,4.45
2022-07-31T13:58:01.698Z,4.40
2022-07-31T14:00:29.940Z,4.03
2022-07-31T14:02:57.761Z,4.30
2022-07-31T14:05:26.735Z,4.40
2022-07-31T14:07:55.788Z,4.65
2022-07-31T14:10:23.789Z,3.53
2022-07-31T14:12:53.471Z,3.92
2022-07-31T14:15:21.104Z,4.22
2022-07-31T14:17:49.000Z,4.30
2022-07-31T14:20:16.924Z,4.70
2022-07-31T14:22:44.714Z,4.70
2022-07-31T14:25:14.032Z,4.03
2022-07-31T14:27:41.630Z,4.85
2022-07-31T14:30:09.992Z,4.65
2022-07-31T14:32:37.636Z,4.60
2022-07-31T14:35:08.262Z,5.50
2022-07-31T14:37:36.506Z,4.88
2022-07-31T14:40:07.012Z,5.07
2022-07-31T14:42:34.631Z,4.88
2022-07-31T14:45:03.193Z,4.80
2022-07-31T14:47:31.810Z,5.63
2022-07-31T14:50:09.575Z,5.00
2022-07-31T14:52:38.534Z,5.10
2022-07-31T14:55:06.339Z,5.68
2022-07-31T14:57:34.192Z,5.80
2022-07-31T15:00:01.842Z,4.82
2022-07-31T15:02:29.421Z,5.53
2022-07-31T15:04:56.974Z,5.90
2022-07-31T15:07:46.239Z,5.10
2022-07-31T15:10:12.396Z,5.13
2022-07-31T15:12:40.377Z,5.88
2022-07-31T15:15:08.482Z,5.70
2022-07-31T15:17:36.008Z,5.82
2022-07-31T15:20:04.759Z,5.35
2022-07-31T15:22:32.423Z,5.00
2022-07-31T15:25:00.038Z,5.78
2022-07-31T15:27:27.523Z,5.90
2022-07-31T15:30:06.175Z,4.97
2022-07-31T15:32:39.099Z,5.00
2022-07-31T15:35:07.538Z,5.85
2022-07-31T15:37:35.857Z,4.90
2022-07-31T15:40:04.989Z,6.32
2022-07-31T15:42:33.337Z,4.50
2022-07-31T15:45:01.059Z,4.85
2022-07-31T15:47:29.171Z,6.75
2022-07-31T15:49:56.862Z,6.00
2022-07-31T15:52:25.187Z,5.40
2022-07-31T15:54:53.231Z,5.18
2022-07-31T15:57:21.379Z,7.13
2022-07-31T15:59:49.966Z,6.57
2022-07-31T16:02:17.801Z,5.75
2022-07-31T16:04:52.534Z,6.03
2022-07-31T16:08:30.039Z,5.50
2022-07-31T16:10:18.020Z,6.25
2022-07-31T16:12:46.593Z,5.10
2022-07-31T16:15:14.658Z,6.40
2022-07-31T16:17:42.412Z,6.00
2022-07-31T16:20:26.067Z,4.88
2022-07-31T16:23:03.425Z,5.60
2022-07-31T16:25:31.978Z,5.30
2022-07-31T16:28:02.940Z,5.75
2022-07-31T16:30:31.250Z,6.05
2022-07-31T16:32:58.891Z,5.30
2022-07-31T16:35:26.639Z,5.10
2022-07-31T16:37:54.800Z,6.55
2022-07-31T16:40:27.048Z,5.75
2022-07-31T16:42:57.271Z,5.00
2022-07-31T16:45:25.229Z,5.60
2022-07-31T16:47:52.963Z,6.15
2022-07-31T16:50:20.705Z,6.00
2022-07-31T16:52:52.643Z,5.70
2022-07-31T16:55:53.096Z,5.30
2022-07-31T16:58:11.781Z,5.20
2022-07-31T17:00:39.912Z,5.78
2022-07-31T17:03:59.023Z,6.63
2022-07-31T17:05:55.463Z,5.70
2022-07-31T17:08:22.921Z,7.28
2022-07-31T17:10:54.424Z,6.30
2022-07-31T17:13:23.202Z,5.93
2022-07-31T17:15:50.844Z,5.53
2022-07-31T17:18:18.820Z,5.47
2022-07-31T17:20:47.232Z,5.70
2022-07-31T17:23:15.836Z,8.32
2022-07-31T17:25:43.586Z,6.60
2022-07-31T17:28:15.182Z,5.88
2022-07-31T17:30:44.997Z,6.25
2022-07-31T17:33:13.561Z,5.95
2022-07-31T17:35:41.419Z,5.38
2022-07-31T17:38:09.127Z,5.75
2022-07-31T17:40:44.425Z,5.30
2022-07-31T17:43:13.202Z,6.45
2022-07-31T17:45:50.704Z,5.93
2022-07-31T17:48:29.175Z,5.20
2022-07-31T17:50:57.332Z,6.40
2022-07-31T17:53:31.128Z,6.30
2022-07-31T17:56:13.224Z,6.75
2022-07-31T17:58:40.846Z,6.55
2022-07-31T18:01:08.530Z,7.47
2022-07-31T18:03:36.236Z,6.88
2022-07-31T18:06:05.091Z,6.38
2022-07-31T18:08:32.739Z,6.47
2022-07-31T18:11:00.495Z,6.30
2022-07-31T18:13:28.247Z,5.88
2022-07-31T18:15:55.798Z,6.15
2022-07-31T18:18:23.511Z,5.88
2022-07-31T18:20:51.079Z,6.82
2022-07-31T18:23:18.597Z,6.60
2022-07-31T18:25:46.143Z,5.82
2022-07-31T18:28:13.666Z,6.20
2022-07-31T18:30:42.227Z,6.35
2022-07-31T18:33:12.289Z,6.03
2022-07-31T18:35:41.582Z,6.75
2022-07-31T18:38:09.704Z,6.68
2022-07-31T18:40:37.359Z,7.32
2022-07-31T18:43:06.157Z,7.00
2022-07-31T18:45:33.938Z,6.82
2022-07-31T18:48:01.469Z,7.53
2022-07-31T18:51:00.842Z,8.38
2022-07-31T18:53:16.901Z,8.13
2022-07-31T18:55:47.564Z,8.35
2022-07-31T18:58:15.221Z,9.00
2022-07-31T19:00:42.918Z,7.32
2022-07-31T19:03:10.450Z,7.18
2022-07-31T19:05:38.093Z,7.43
2022-07-31T19:08:05.914Z,6.55
2022-07-31T19:10:33.494Z,7.03
2022-07-31T19:13:01.871Z,7.32
2022-07-31T19:15:29.537Z,7.03
2022-07-31T19:18:02.012Z,6.55
2022-07-31T19:20:56.356Z,6.97
2022-07-31T19:23:19.627Z,6.78
2022-07-31T19:25:59.611Z,6.65
2022-07-31T19:28:34.513Z,6.32
2022-07-31T19:31:02.251Z,6.70
2022-07-31T19:33:29.776Z,6.85
2022-07-31T19:36:01.914Z,6.25
2022-07-31T19:38:31.558Z,7.93
2022-07-31T19:40:59.562Z,6.10
2022-07-31T19:43:27.481Z,6.43
2022-07-31T19:46:00.338Z,6.43
2022-07-31T19:48:43.643Z,7.00
2022-07-31T19:51:12.145Z,6.20
2022-07-31T19:53:39.963Z,6.43
2022-07-31T19:56:08.244Z,6.03
2022-07-31T19:58:37.120Z,7.43
2022-07-31T20:01:05.706Z,7.30
2022-07-31T20:03:33.649Z,7.10
2022-07-31T20:06:02.085Z,6.95
2022-07-31T20:08:33.074Z,6.25
2022-07-31T20:11:04.093Z,5.90
2022-07-31T20:13:38.551Z,5.72
2022-07-31T20:16:06.467Z,5.03
2022-07-31T20:18:34.058Z,5.40
2022-07-31T20:21:03.552Z,4.78
2022-07-31T20:23:34.377Z,5.57
2022-07-31T20:26:03.514Z,5.10
2022-07-31T20:28:31.122Z,5.93
2022-07-31T20:30:58.972Z,6.15
2022-07-31T20:33:26.561Z,6.20
2022-07-31T20:35:54.409Z,6.03
2022-07-31T20:38:22.725Z,6.03
2022-07-31T20:40:53.642Z,6.50
2022-07-31T20:43:26.318Z,6.00
2022-07-31T20:45:57.355Z,5.78
2022-07-31T20:48:31.414Z,6.03
2022-07-31T20:51:03.890Z,5.53
2022-07-31T20:53:32.074Z,5.78
2022-07-31T20:55:59.795Z,5.95
2022-07-31T20:58:28.326Z,5.43
2022-07-31T21:00:56.008Z,5.63
2022-07-31T21:03:24.118Z,5.45
2022-07-31T21:05:51.723Z,5.90
2022-07-31T21:08:19.418Z,5.95
2022-07-31T21:10:47.064Z,6.03
2022-07-31T21:13:14.667Z,5.85
2022-07-31T21:15:45.093Z,5.68
2022-07-31T21:18:13.940Z,6.53
2022-07-31T21:20:51.978Z,7.03
2022-07-31T21:23:24.316Z,7.00
2022-07-31T21:25:52.616Z,7.10
2022-07-31T21:28:20.819Z,6.63
2022-07-31T21:30:48.551Z,7.07
2022-07-31T21:33:16.444Z,6.88
2022-07-31T21:35:44.929Z,6.18
2022-07-31T21:38:14.768Z,7.10
2022-07-31T21:40:42.860Z,7.20
2022-07-31T21:43:10.460Z,7.07
2022-07-31T21:45:49.657Z,7.47
2022-07-31T21:48:19.043Z,7.05
2022-07-31T21:50:47.314Z,6.95
2022-07-31T21:53:15.301Z,7.47
2022-07-31T21:55:43.028Z,7.13
2022-07-31T21:58:10.852Z,6.38
2022-07-31T22:00:39.200Z,6.35
2022-07-31T22:03:06.803Z,6.53
2022-07-31T22:05:53.191Z,6.53
2022-07-31T22:08:20.987Z,5.93
2022-07-31T22:10:50.928Z,4.50
2022-07-31T22:13:19.264Z,4.10
2022-07-31T22:15:55.525Z,3.88
2022-07-31T22:18:31.020Z,3.72
2022-07-31T22:20:59.328Z,3.15
2022-07-31T22:23:27.647Z,3.55
2022-07-31T22:25:55.438Z,4.15
2022-07-31T22:28:23.926Z,3.20
2022-07-31T22:30:51.858Z,3.00
2022-07-31T22:33:19.833Z,2.80
2022-07-31T22:35:58.788Z,2.20
2022-07-31T22:38:29.569Z,2.42
2022-07-31T22:40:57.897Z,2.28
2022-07-31T22:44:10.589Z,2.20
2022-07-31T22:46:14.113Z,2.22
2022-07-31T22:48:41.809Z,2.20
2022-07-31T22:51:10.651Z,2.35
2022-07-31T22:53:41.880Z,2.40
2022-07-31T22:56:09.396Z,2.20
2022-07-31T22:58:36.965Z,1.80
2022-07-31T23:01:04.502Z,1.63
2022-07-31T23:03:32.242Z,1.90
2022-07-31T23:06:03.673Z,1.63
2022-07-31T23:08:50.834Z,1.70
2022-07-31T23:11:21.742Z,1.55
2022-07-31T23:13:49.373Z,2.28
2022-07-31T23:16:17.019Z,2.50
2022-07-31T23:18:44.658Z,1.52
2022-07-31T23:21:12.234Z,1.95
2022-07-31T23:23:39.823Z,1.75
2022-07-31T23:26:07.405Z,1.50
2022-07-31T23:28:35.037Z,1.50
2022-07-31T23:31:02.622Z,1.50
2022-07-31T23:33:30.183Z,1.55
2022-07-31T23:35:57.857Z,1.40
2022-07-31T23:38:25.526Z,1.10
2022-07-31T23:40:56.296Z,1.25
2022-07-31T23:43:24.219Z,1.20
2022-07-31T23:45:51.976Z,0.95
2022-07-31T23:48:19.794Z,0.90
2022-07-31T23:50:48.387Z,0.93
2022-07-31T23:53:16.684Z,0.98
2022-07-31T23:55:44.340Z,1.02
2022-07-31T23:58:12.268Z,0.90
